Observations
| Time | Sensor | AQI | SAQ | Temp °C | Hum % | Pres Pa | CO μg/m³ | H₂S μg/m³ | NO μg/m³ | NO₂ μg/m³ | O₃ μg/m³ | SO₂ μg/m³ | CO₂e PPM | VOC PPM | PM1 μg/m³ | PM2.5 μg/m³ | PM4 μg/m³ | PM10 μg/m³ | TPS µm |
|---|---|---|---|---|---|---|---|---|---|---|---|---|---|---|---|---|---|---|---|
| Tuesday 11 August 2026 | |||||||||||||||||||
| 12:32 | Trim Patrick St | 1 | 31.8 | 27 | 69,326 | 0 | 0 | 1.13 | 11.34 | 108.66 | 17.79 | 2.86 | 8.68 | 9.54 | |||||
| 12:31 | Trim Patrick St | 1 | 31.9 | 26 | 69,338 | 0 | 0 | 1.13 | 13.33 | 142.53 | 17.75 | 2.86 | 8.71 | 9.58 | |||||
| 12:30 | Trim Patrick St | 1 | 32.1 | 27 | 69,347 | 0 | 0 | 1 | 11.88 | 100.92 | 18.72 | 2 | 7.87 | 8.66 | |||||
| 12:29 | Trim Patrick St | 1 | 32.2 | 26 | 69,363 | 0 | 0 | 1.02 | 8.14 | 81.59 | 17.75 | 2.86 | 8.76 | 9.64 | |||||
| 12:28 | Trim Patrick St | 1 | 32.4 | 26 | 69,379 | 0 | 0 | 0.99 | 14.25 | 148.94 | 17.34 | 2 | 7.95 | 8.75 | |||||
| 12:28 | Trim Market St | 2 | 39.9 | 18 | 66,984 | 0 | 0 | 0.01 | 15.04 | 113.64 | 4.15 | 0.71 | 3.81 | 4.19 | |||||
| 12:27 | Trim Patrick St | 1 | 32.5 | 26 | 69,377 | 0 | 0 | 0.94 | 8.73 | 89.23 | 18.11 | 2 | 7.92 | 8.71 | |||||
| 12:27 | Trim Market St | 2 | 39.9 | 19 | 67,009 | 0 | 0 | 0.01 | 17.1 | 132.45 | 3.13 | 0 | 3.24 | 3.56 | |||||
| 12:26 | Trim Patrick St | 1 | 32.6 | 27 | 69,371 | 0 | 0 | 0.82 | 8.88 | 85.33 | 18.74 | 2 | 7.88 | 8.67 | |||||
| 12:26 | Trim Market St | 2 | 40 | 19 | 67,009 | 0 | 0 | 0 | 16.41 | 77.3 | 2.53 | 0 | 3.23 | 3.55 | |||||
| 12:25 | Trim Market St | 2 | 40 | 19 | 67,015 | 0 | 0 | 0 | 12.7 | 76.61 | 5.15 | 0 | 3.23 | 3.55 | |||||
| 12:24 | Trim Patrick St | 1 | 32.7 | 27 | 69,410 | 0 | 0 | 0.79 | 11.34 | 115.84 | 18.12 | 2 | 8.69 | 9.56 | |||||
| 12:24 | Trim Market St | 2 | 39.9 | 18 | 67,015 | 0 | 0 | 0.01 | 15.04 | 96.24 | 3.96 | 0 | 3.81 | 4.19 | |||||
| 12:23 | Trim Patrick St | 1 | 32.7 | 27 | 69,412 | 0 | 0 | 0.71 | 6.87 | 80.28 | 17.25 | 2 | 7.85 | 8.63 | |||||
| 12:23 | Trim Market St | 2 | 39.9 | 18 | 67,015 | 0 | 0 | 0 | 14.96 | 105.89 | 3.65 | 0 | 3.24 | 3.57 | |||||
| 12:22 | Trim Market St | 2 | 39.9 | 19 | 67,013 | 0 | 0 | 0 | 14.91 | 133.51 | 3.58 | 0 | 3.79 | 4.17 | |||||
| 12:21 | Trim Patrick St | 1 | 32.8 | 26 | 69,408 | 0 | 0 | 0.78 | 10.23 | 53.96 | 15.9 | 2 | 7.96 | 8.75 | |||||
| 12:21 | Trim Market St | 2 | 39.9 | 19 | 67,015 | 0 | 0 | 0 | 14.89 | 95.88 | 4.64 | 0 | 3.79 | 4.16 | |||||
| 12:20 | Trim Patrick St | 1 | 32.8 | 26 | 69,402 | 0 | 0 | 0.81 | 13.07 | 125.16 | 18.18 | 2 | 7.9 | 8.69 | |||||
| 12:20 | Trim Market St | 2 | 39.8 | 19 | 67,011 | 0 | 0 | 0.04 | 14.93 | 123.42 | 4.23 | 0 | 3.23 | 3.55 | |||||